sensor_id;sensor_type;location;lat;lon;timestamp;P1;durP1;ratioP1;P2;durP2;ratioP2
71941;SDS011;59997;53.300;-6.260;2022-07-29T00:01:06;19.33;;;6.07;;
71941;SDS011;59997;53.300;-6.260;2022-07-29T00:03:32;20.17;;;5.85;;
71941;SDS011;59997;53.300;-6.260;2022-07-29T00:05:57;18.77;;;5.80;;
71941;SDS011;59997;53.300;-6.260;2022-07-29T00:08:23;20.87;;;6.47;;
71941;SDS011;59997;53.300;-6.260;2022-07-29T00:10:49;20.63;;;7.10;;
71941;SDS011;59997;53.300;-6.260;2022-07-29T00:13:15;22.15;;;7.10;;
71941;SDS011;59997;53.300;-6.260;2022-07-29T00:15:41;19.77;;;6.83;;
71941;SDS011;59997;53.300;-6.260;2022-07-29T00:18:07;23.45;;;7.00;;
71941;SDS011;59997;53.300;-6.260;2022-07-29T00:20:32;19.00;;;6.20;;
71941;SDS011;59997;53.300;-6.260;2022-07-29T00:22:58;19.77;;;6.22;;
71941;SDS011;59997;53.300;-6.260;2022-07-29T00:25:24;18.15;;;5.80;;
71941;SDS011;59997;53.300;-6.260;2022-07-29T00:27:50;19.27;;;6.07;;
71941;SDS011;59997;53.300;-6.260;2022-07-29T00:30:17;19.00;;;5.93;;
71941;SDS011;59997;53.300;-6.260;2022-07-29T00:32:43;17.73;;;6.00;;
71941;SDS011;59997;53.300;-6.260;2022-07-29T00:35:09;16.77;;;5.43;;
71941;SDS011;59997;53.300;-6.260;2022-07-29T00:37:53;18.23;;;4.82;;
71941;SDS011;59997;53.300;-6.260;2022-07-29T00:40:19;15.05;;;5.00;;
71941;SDS011;59997;53.300;-6.260;2022-07-29T00:42:46;17.73;;;5.30;;
71941;SDS011;59997;53.300;-6.260;2022-07-29T00:45:13;16.33;;;5.07;;
71941;SDS011;59997;53.300;-6.260;2022-07-29T00:47:41;16.50;;;5.40;;
71941;SDS011;59997;53.300;-6.260;2022-07-29T00:50:08;14.20;;;4.65;;
71941;SDS011;59997;53.300;-6.260;2022-07-29T00:52:35;14.15;;;4.57;;
71941;SDS011;59997;53.300;-6.260;2022-07-29T00:55:03;11.43;;;4.40;;
71941;SDS011;59997;53.300;-6.260;2022-07-29T00:57:30;10.93;;;4.13;;
71941;SDS011;59997;53.300;-6.260;2022-07-29T00:59:56;13.77;;;4.10;;
71941;SDS011;59997;53.300;-6.260;2022-07-29T01:02:22;11.87;;;4.00;;
71941;SDS011;59997;53.300;-6.260;2022-07-29T01:04:48;9.73;;;3.53;;
71941;SDS011;59997;53.300;-6.260;2022-07-29T01:07:14;10.10;;;3.63;;
71941;SDS011;59997;53.300;-6.260;2022-07-29T01:09:41;11.47;;;3.43;;
71941;SDS011;59997;53.300;-6.260;2022-07-29T01:12:08;10.98;;;3.70;;
71941;SDS011;59997;53.300;-6.260;2022-07-29T01:14:35;10.02;;;3.92;;
71941;SDS011;59997;53.300;-6.260;2022-07-29T01:17:10;13.65;;;4.38;;
71941;SDS011;59997;53.300;-6.260;2022-07-29T01:20:27;12.25;;;4.22;;
71941;SDS011;59997;53.300;-6.260;2022-07-29T01:30:50;10.13;;;3.53;;
71941;SDS011;59997;53.300;-6.260;2022-07-29T01:33:18;9.05;;;3.40;;
71941;SDS011;59997;53.300;-6.260;2022-07-29T01:36:07;9.27;;;3.33;;
71941;SDS011;59997;53.300;-6.260;2022-07-29T01:38:39;9.35;;;3.08;;
71941;SDS011;59997;53.300;-6.260;2022-07-29T01:41:09;9.10;;;3.33;;
71941;SDS011;59997;53.300;-6.260;2022-07-29T01:43:42;10.20;;;3.20;;
71941;SDS011;59997;53.300;-6.260;2022-07-29T01:46:14;7.93;;;2.88;;
71941;SDS011;59997;53.300;-6.260;2022-07-29T01:48:47;8.60;;;2.80;;
71941;SDS011;59997;53.300;-6.260;2022-07-29T01:51:19;8.52;;;3.03;;
71941;SDS011;59997;53.300;-6.260;2022-07-29T01:54:14;8.82;;;2.92;;
71941;SDS011;59997;53.300;-6.260;2022-07-29T01:56:47;8.20;;;2.95;;
71941;SDS011;59997;53.300;-6.260;2022-07-29T01:59:14;8.32;;;2.42;;
71941;SDS011;59997;53.300;-6.260;2022-07-29T02:01:44;7.23;;;2.50;;
71941;SDS011;59997;53.300;-6.260;2022-07-29T02:04:12;5.72;;;1.83;;
71941;SDS011;59997;53.300;-6.260;2022-07-29T02:06:40;6.05;;;1.90;;
71941;SDS011;59997;53.300;-6.260;2022-07-29T02:09:07;5.45;;;1.70;;
71941;SDS011;59997;53.300;-6.260;2022-07-29T02:11:35;5.38;;;1.90;;
71941;SDS011;59997;53.300;-6.260;2022-07-29T02:14:02;5.50;;;1.53;;
71941;SDS011;59997;53.300;-6.260;2022-07-29T02:16:30;6.20;;;1.50;;
71941;SDS011;59997;53.300;-6.260;2022-07-29T02:19:00;5.25;;;1.30;;
71941;SDS011;59997;53.300;-6.260;2022-07-29T02:21:28;5.82;;;1.70;;
71941;SDS011;59997;53.300;-6.260;2022-07-29T02:23:55;5.28;;;1.58;;
71941;SDS011;59997;53.300;-6.260;2022-07-29T02:26:24;6.70;;;1.50;;
71941;SDS011;59997;53.300;-6.260;2022-07-29T02:28:52;5.10;;;1.45;;
71941;SDS011;59997;53.300;-6.260;2022-07-29T02:31:21;4.85;;;1.48;;
71941;SDS011;59997;53.300;-6.260;2022-07-29T02:33:50;5.50;;;1.65;;
71941;SDS011;59997;53.300;-6.260;2022-07-29T02:36:17;6.13;;;1.70;;
71941;SDS011;59997;53.300;-6.260;2022-07-29T02:38:48;7.37;;;1.70;;
71941;SDS011;59997;53.300;-6.260;2022-07-29T02:41:26;6.45;;;1.70;;
71941;SDS011;59997;53.300;-6.260;2022-07-29T02:44:03;5.20;;;1.60;;
71941;SDS011;59997;53.300;-6.260;2022-07-29T02:46:35;4.90;;;1.50;;
71941;SDS011;59997;53.300;-6.260;2022-07-29T02:51:59;5.73;;;1.47;;
71941;SDS011;59997;53.300;-6.260;2022-07-29T02:54:31;6.10;;;1.83;;
71941;SDS011;59997;53.300;-6.260;2022-07-29T02:57:00;6.68;;;1.95;;
71941;SDS011;59997;53.300;-6.260;2022-07-29T02:59:32;5.00;;;1.50;;
71941;SDS011;59997;53.300;-6.260;2022-07-29T03:02:01;6.95;;;1.67;;
71941;SDS011;59997;53.300;-6.260;2022-07-29T03:04:29;6.13;;;1.60;;
71941;SDS011;59997;53.300;-6.260;2022-07-29T03:06:56;6.00;;;1.25;;
71941;SDS011;59997;53.300;-6.260;2022-07-29T03:09:25;6.65;;;1.90;;
71941;SDS011;59997;53.300;-6.260;2022-07-29T03:11:54;8.55;;;1.60;;
71941;SDS011;59997;53.300;-6.260;2022-07-29T03:14:21;5.00;;;1.50;;
71941;SDS011;59997;53.300;-6.260;2022-07-29T03:16:48;5.63;;;1.40;;
71941;SDS011;59997;53.300;-6.260;2022-07-29T03:19:18;5.78;;;1.50;;
71941;SDS011;59997;53.300;-6.260;2022-07-29T03:21:45;5.03;;;1.20;;
71941;SDS011;59997;53.300;-6.260;2022-07-29T03:24:23;6.13;;;1.30;;
71941;SDS011;59997;53.300;-6.260;2022-07-29T03:26:55;6.00;;;1.40;;
71941;SDS011;59997;53.300;-6.260;2022-07-29T03:29:21;5.90;;;1.63;;
71941;SDS011;59997;53.300;-6.260;2022-07-29T03:31:47;6.07;;;1.40;;
71941;SDS011;59997;53.300;-6.260;2022-07-29T03:34:12;4.60;;;1.20;;
71941;SDS011;59997;53.300;-6.260;2022-07-29T03:36:38;5.80;;;1.80;;
71941;SDS011;59997;53.300;-6.260;2022-07-29T03:39:04;7.20;;;1.50;;
71941;SDS011;59997;53.300;-6.260;2022-07-29T03:41:32;6.00;;;1.63;;
71941;SDS011;59997;53.300;-6.260;2022-07-29T03:43:59;5.57;;;1.60;;
71941;SDS011;59997;53.300;-6.260;2022-07-29T03:46:26;7.18;;;1.50;;
71941;SDS011;59997;53.300;-6.260;2022-07-29T03:48:55;5.73;;;1.67;;
71941;SDS011;59997;53.300;-6.260;2022-07-29T03:51:29;6.95;;;1.90;;
71941;SDS011;59997;53.300;-6.260;2022-07-29T03:53:56;5.15;;;1.63;;
71941;SDS011;59997;53.300;-6.260;2022-07-29T03:56:22;8.75;;;2.08;;
71941;SDS011;59997;53.300;-6.260;2022-07-29T03:58:49;7.50;;;2.05;;
71941;SDS011;59997;53.300;-6.260;2022-07-29T04:01:17;6.40;;;2.20;;
71941;SDS011;59997;53.300;-6.260;2022-07-29T04:03:44;7.00;;;2.10;;
71941;SDS011;59997;53.300;-6.260;2022-07-29T04:06:11;6.45;;;2.10;;
71941;SDS011;59997;53.300;-6.260;2022-07-29T04:08:37;5.80;;;2.10;;
71941;SDS011;59997;53.300;-6.260;2022-07-29T04:11:03;7.30;;;2.47;;
71941;SDS011;59997;53.300;-6.260;2022-07-29T04:13:30;7.28;;;2.10;;
71941;SDS011;59997;53.300;-6.260;2022-07-29T04:15:57;6.28;;;2.20;;
71941;SDS011;59997;53.300;-6.260;2022-07-29T04:18:23;7.68;;;2.30;;
71941;SDS011;59997;53.300;-6.260;2022-07-29T04:20:49;6.97;;;2.58;;
71941;SDS011;59997;53.300;-6.260;2022-07-29T04:23:15;9.13;;;2.47;;
71941;SDS011;59997;53.300;-6.260;2022-07-29T04:25:40;7.50;;;2.70;;
71941;SDS011;59997;53.300;-6.260;2022-07-29T04:28:08;7.10;;;2.47;;
71941;SDS011;59997;53.300;-6.260;2022-07-29T04:30:35;7.07;;;2.58;;
71941;SDS011;59997;53.300;-6.260;2022-07-29T04:33:04;5.88;;;2.30;;
71941;SDS011;59997;53.300;-6.260;2022-07-29T04:35:33;7.30;;;2.25;;
71941;SDS011;59997;53.300;-6.260;2022-07-29T04:38:01;6.50;;;2.23;;
71941;SDS011;59997;53.300;-6.260;2022-07-29T04:40:28;7.35;;;2.65;;
71941;SDS011;59997;53.300;-6.260;2022-07-29T04:42:54;9.68;;;2.50;;
71941;SDS011;59997;53.300;-6.260;2022-07-29T04:45:20;6.33;;;2.30;;
71941;SDS011;59997;53.300;-6.260;2022-07-29T04:47:46;9.30;;;2.78;;
71941;SDS011;59997;53.300;-6.260;2022-07-29T04:50:11;6.70;;;2.30;;
71941;SDS011;59997;53.300;-6.260;2022-07-29T04:52:37;7.53;;;2.40;;
71941;SDS011;59997;53.300;-6.260;2022-07-29T04:55:03;9.23;;;2.50;;
71941;SDS011;59997;53.300;-6.260;2022-07-29T04:57:30;6.53;;;2.40;;
71941;SDS011;59997;53.300;-6.260;2022-07-29T04:59:56;6.35;;;2.78;;
71941;SDS011;59997;53.300;-6.260;2022-07-29T05:02:23;7.90;;;2.70;;
71941;SDS011;59997;53.300;-6.260;2022-07-29T05:04:49;7.35;;;2.20;;
71941;SDS011;59997;53.300;-6.260;2022-07-29T05:07:15;7.77;;;3.00;;
71941;SDS011;59997;53.300;-6.260;2022-07-29T05:09:44;7.77;;;3.07;;
71941;SDS011;59997;53.300;-6.260;2022-07-29T05:12:10;6.50;;;2.75;;
71941;SDS011;59997;53.300;-6.260;2022-07-29T05:14:37;6.80;;;2.45;;
71941;SDS011;59997;53.300;-6.260;2022-07-29T05:17:02;7.60;;;2.70;;
71941;SDS011;59997;53.300;-6.260;2022-07-29T05:19:29;7.68;;;2.35;;
71941;SDS011;59997;53.300;-6.260;2022-07-29T05:21:55;7.20;;;2.70;;
71941;SDS011;59997;53.300;-6.260;2022-07-29T05:24:21;8.57;;;2.95;;
71941;SDS011;59997;53.300;-6.260;2022-07-29T05:26:47;6.32;;;2.42;;
71941;SDS011;59997;53.300;-6.260;2022-07-29T05:29:13;6.40;;;2.25;;
71941;SDS011;59997;53.300;-6.260;2022-07-29T05:31:39;8.88;;;2.63;;
71941;SDS011;59997;53.300;-6.260;2022-07-29T05:34:05;6.87;;;2.47;;
71941;SDS011;59997;53.300;-6.260;2022-07-29T05:36:30;6.30;;;2.33;;
71941;SDS011;59997;53.300;-6.260;2022-07-29T05:38:56;6.93;;;2.60;;
71941;SDS011;59997;53.300;-6.260;2022-07-29T05:41:22;9.00;;;2.60;;
71941;SDS011;59997;53.300;-6.260;2022-07-29T05:43:48;6.60;;;2.70;;
71941;SDS011;59997;53.300;-6.260;2022-07-29T05:46:13;6.27;;;2.60;;
71941;SDS011;59997;53.300;-6.260;2022-07-29T05:48:39;8.13;;;2.70;;
71941;SDS011;59997;53.300;-6.260;2022-07-29T05:51:05;7.30;;;2.90;;
71941;SDS011;59997;53.300;-6.260;2022-07-29T05:53:32;7.85;;;2.80;;
71941;SDS011;59997;53.300;-6.260;2022-07-29T05:55:57;7.23;;;2.73;;
71941;SDS011;59997;53.300;-6.260;2022-07-29T05:58:27;7.43;;;2.90;;
71941;SDS011;59997;53.300;-6.260;2022-07-29T06:00:53;7.00;;;2.30;;
71941;SDS011;59997;53.300;-6.260;2022-07-29T06:03:19;7.72;;;2.70;;
71941;SDS011;59997;53.300;-6.260;2022-07-29T06:05:44;7.10;;;2.60;;
71941;SDS011;59997;53.300;-6.260;2022-07-29T06:08:10;7.67;;;2.53;;
71941;SDS011;59997;53.300;-6.260;2022-07-29T06:10:36;7.83;;;2.60;;
71941;SDS011;59997;53.300;-6.260;2022-07-29T06:13:02;7.50;;;2.40;;
71941;SDS011;59997;53.300;-6.260;2022-07-29T06:15:28;7.00;;;2.45;;
71941;SDS011;59997;53.300;-6.260;2022-07-29T06:17:54;6.57;;;2.50;;
71941;SDS011;59997;53.300;-6.260;2022-07-29T06:20:20;8.07;;;2.78;;
71941;SDS011;59997;53.300;-6.260;2022-07-29T06:22:45;7.05;;;2.72;;
71941;SDS011;59997;53.300;-6.260;2022-07-29T06:25:13;6.60;;;2.20;;
71941;SDS011;59997;53.300;-6.260;2022-07-29T06:27:39;7.63;;;2.53;;
71941;SDS011;59997;53.300;-6.260;2022-07-29T06:30:05;5.43;;;1.90;;
71941;SDS011;59997;53.300;-6.260;2022-07-29T06:32:50;7.18;;;2.47;;
71941;SDS011;59997;53.300;-6.260;2022-07-29T06:35:16;6.88;;;2.40;;
71941;SDS011;59997;53.300;-6.260;2022-07-29T06:37:41;7.40;;;2.50;;
71941;SDS011;59997;53.300;-6.260;2022-07-29T06:40:07;9.47;;;2.17;;
71941;SDS011;59997;53.300;-6.260;2022-07-29T06:42:52;8.18;;;2.35;;
71941;SDS011;59997;53.300;-6.260;2022-07-29T06:45:18;6.70;;;2.70;;
71941;SDS011;59997;53.300;-6.260;2022-07-29T06:47:44;6.38;;;2.58;;
71941;SDS011;59997;53.300;-6.260;2022-07-29T06:50:10;7.10;;;2.80;;
71941;SDS011;59997;53.300;-6.260;2022-07-29T06:52:38;8.15;;;2.30;;
71941;SDS011;59997;53.300;-6.260;2022-07-29T06:55:04;7.20;;;2.63;;
71941;SDS011;59997;53.300;-6.260;2022-07-29T06:57:30;7.03;;;2.53;;
71941;SDS011;59997;53.300;-6.260;2022-07-29T06:59:57;8.47;;;2.60;;
71941;SDS011;59997;53.300;-6.260;2022-07-29T07:02:23;9.88;;;2.70;;
71941;SDS011;59997;53.300;-6.260;2022-07-29T07:04:49;8.80;;;2.88;;
71941;SDS011;59997;53.300;-6.260;2022-07-29T07:07:14;6.70;;;2.38;;
71941;SDS011;59997;53.300;-6.260;2022-07-29T07:09:40;7.00;;;2.20;;
71941;SDS011;59997;53.300;-6.260;2022-07-29T07:12:05;7.33;;;2.50;;
71941;SDS011;59997;53.300;-6.260;2022-07-29T07:14:32;7.43;;;2.10;;
71941;SDS011;59997;53.300;-6.260;2022-07-29T07:16:58;7.35;;;2.33;;
71941;SDS011;59997;53.300;-6.260;2022-07-29T07:19:25;7.37;;;2.23;;
71941;SDS011;59997;53.300;-6.260;2022-07-29T07:21:52;7.95;;;2.33;;
71941;SDS011;59997;53.300;-6.260;2022-07-29T07:24:19;6.82;;;2.63;;
71941;SDS011;59997;53.300;-6.260;2022-07-29T07:26:44;7.23;;;2.20;;
71941;SDS011;59997;53.300;-6.260;2022-07-29T07:29:10;7.53;;;2.13;;
71941;SDS011;59997;53.300;-6.260;2022-07-29T07:31:36;7.07;;;1.90;;
71941;SDS011;59997;53.300;-6.260;2022-07-29T07:34:04;8.17;;;2.40;;
71941;SDS011;59997;53.300;-6.260;2022-07-29T07:36:30;6.95;;;2.30;;
71941;SDS011;59997;53.300;-6.260;2022-07-29T07:38:56;8.38;;;1.80;;
71941;SDS011;59997;53.300;-6.260;2022-07-29T07:41:21;6.13;;;1.98;;
71941;SDS011;59997;53.300;-6.260;2022-07-29T07:43:48;6.27;;;1.70;;
71941;SDS011;59997;53.300;-6.260;2022-07-29T07:46:14;6.13;;;1.98;;
71941;SDS011;59997;53.300;-6.260;2022-07-29T07:48:40;6.65;;;1.65;;
71941;SDS011;59997;53.300;-6.260;2022-07-29T07:51:06;6.03;;;1.53;;
71941;SDS011;59997;53.300;-6.260;2022-07-29T07:53:33;7.07;;;1.40;;
71941;SDS011;59997;53.300;-6.260;2022-07-29T07:56:00;8.45;;;1.85;;
71941;SDS011;59997;53.300;-6.260;2022-07-29T07:58:26;7.43;;;1.73;;
71941;SDS011;59997;53.300;-6.260;2022-07-29T08:00:52;5.40;;;1.50;;
71941;SDS011;59997;53.300;-6.260;2022-07-29T08:03:18;6.10;;;1.70;;
71941;SDS011;59997;53.300;-6.260;2022-07-29T08:05:44;6.00;;;1.33;;
71941;SDS011;59997;53.300;-6.260;2022-07-29T08:08:10;6.03;;;1.40;;
71941;SDS011;59997;53.300;-6.260;2022-07-29T08:10:36;6.50;;;1.45;;
71941;SDS011;59997;53.300;-6.260;2022-07-29T08:13:23;6.55;;;1.40;;
71941;SDS011;59997;53.300;-6.260;2022-07-29T08:15:52;8.00;;;2.00;;
71941;SDS011;59997;53.300;-6.260;2022-07-29T08:18:28;7.73;;;1.40;;
71941;SDS011;59997;53.300;-6.260;2022-07-29T08:20:56;5.57;;;1.38;;
71941;SDS011;59997;53.300;-6.260;2022-07-29T08:23:22;5.88;;;1.40;;
71941;SDS011;59997;53.300;-6.260;2022-07-29T08:25:53;7.55;;;1.35;;
71941;SDS011;59997;53.300;-6.260;2022-07-29T08:28:19;7.22;;;1.20;;
71941;SDS011;59997;53.300;-6.260;2022-07-29T08:30:44;9.67;;;1.70;;
71941;SDS011;59997;53.300;-6.260;2022-07-29T08:33:10;7.17;;;1.43;;
71941;SDS011;59997;53.300;-6.260;2022-07-29T08:35:36;6.27;;;1.40;;
71941;SDS011;59997;53.300;-6.260;2022-07-29T08:38:02;6.97;;;1.67;;
71941;SDS011;59997;53.300;-6.260;2022-07-29T08:40:29;8.70;;;1.95;;
71941;SDS011;59997;53.300;-6.260;2022-07-29T08:42:55;7.20;;;1.60;;
71941;SDS011;59997;53.300;-6.260;2022-07-29T08:45:21;9.33;;;1.80;;
71941;SDS011;59997;53.300;-6.260;2022-07-29T08:47:49;8.00;;;1.40;;
71941;SDS011;59997;53.300;-6.260;2022-07-29T08:50:15;6.25;;;1.77;;
71941;SDS011;59997;53.300;-6.260;2022-07-29T08:52:40;5.25;;;1.60;;
71941;SDS011;59997;53.300;-6.260;2022-07-29T08:55:07;6.43;;;2.10;;
71941;SDS011;59997;53.300;-6.260;2022-07-29T08:57:35;7.47;;;1.40;;
71941;SDS011;59997;53.300;-6.260;2022-07-29T09:00:03;6.60;;;1.58;;
71941;SDS011;59997;53.300;-6.260;2022-07-29T09:02:35;5.95;;;1.73;;
71941;SDS011;59997;53.300;-6.260;2022-07-29T09:05:04;5.93;;;1.42;;
71941;SDS011;59997;53.300;-6.260;2022-07-29T09:07:30;6.50;;;1.67;;
71941;SDS011;59997;53.300;-6.260;2022-07-29T09:09:56;8.85;;;1.98;;
71941;SDS011;59997;53.300;-6.260;2022-07-29T09:12:22;7.93;;;1.95;;
71941;SDS011;59997;53.300;-6.260;2022-07-29T09:14:50;6.80;;;1.80;;
71941;SDS011;59997;53.300;-6.260;2022-07-29T09:17:15;7.07;;;1.80;;
71941;SDS011;59997;53.300;-6.260;2022-07-29T09:19:43;5.85;;;1.73;;
71941;SDS011;59997;53.300;-6.260;2022-07-29T09:22:09;5.65;;;1.70;;
71941;SDS011;59997;53.300;-6.260;2022-07-29T09:24:46;5.63;;;1.90;;
71941;SDS011;59997;53.300;-6.260;2022-07-29T09:27:22;7.43;;;2.67;;
71941;SDS011;59997;53.300;-6.260;2022-07-29T09:29:59;8.15;;;2.22;;
71941;SDS011;59997;53.300;-6.260;2022-07-29T09:32:26;7.07;;;1.80;;
71941;SDS011;59997;53.300;-6.260;2022-07-29T09:37:57;6.35;;;1.65;;
71941;SDS011;59997;53.300;-6.260;2022-07-29T09:40:24;5.83;;;2.00;;
71941;SDS011;59997;53.300;-6.260;2022-07-29T09:42:53;7.22;;;2.00;;
71941;SDS011;59997;53.300;-6.260;2022-07-29T09:45:28;9.07;;;2.20;;
71941;SDS011;59997;53.300;-6.260;2022-07-29T09:48:14;7.35;;;1.70;;
71941;SDS011;59997;53.300;-6.260;2022-07-29T09:50:45;7.93;;;1.80;;
71941;SDS011;59997;53.300;-6.260;2022-07-29T09:53:33;6.40;;;1.27;;
71941;SDS011;59997;53.300;-6.260;2022-07-29T09:56:03;6.60;;;1.40;;
71941;SDS011;59997;53.300;-6.260;2022-07-29T09:58:31;5.35;;;1.50;;
71941;SDS011;59997;53.300;-6.260;2022-07-29T10:01:02;5.78;;;1.42;;
71941;SDS011;59997;53.300;-6.260;2022-07-29T10:03:29;5.90;;;1.50;;
71941;SDS011;59997;53.300;-6.260;2022-07-29T10:06:06;4.95;;;1.40;;
71941;SDS011;59997;53.300;-6.260;2022-07-29T10:08:33;7.03;;;1.55;;
71941;SDS011;59997;53.300;-6.260;2022-07-29T10:11:14;5.53;;;1.30;;
71941;SDS011;59997;53.300;-6.260;2022-07-29T10:13:43;5.47;;;1.50;;
71941;SDS011;59997;53.300;-6.260;2022-07-29T10:16:12;6.68;;;1.38;;
71941;SDS011;59997;53.300;-6.260;2022-07-29T10:18:39;5.57;;;1.33;;
71941;SDS011;59997;53.300;-6.260;2022-07-29T10:21:07;6.37;;;1.47;;
71941;SDS011;59997;53.300;-6.260;2022-07-29T10:23:33;5.57;;;1.25;;
71941;SDS011;59997;53.300;-6.260;2022-07-29T10:26:01;6.82;;;1.42;;
71941;SDS011;59997;53.300;-6.260;2022-07-29T10:28:31;5.45;;;1.67;;
71941;SDS011;59997;53.300;-6.260;2022-07-29T10:31:01;5.85;;;1.55;;
71941;SDS011;59997;53.300;-6.260;2022-07-29T10:42:48;5.13;;;1.20;;
71941;SDS011;59997;53.300;-6.260;2022-07-29T10:45:17;5.60;;;1.60;;
71941;SDS011;59997;53.300;-6.260;2022-07-29T10:47:44;7.47;;;1.90;;
71941;SDS011;59997;53.300;-6.260;2022-07-29T10:50:10;8.23;;;1.48;;
71941;SDS011;59997;53.300;-6.260;2022-07-29T10:52:53;5.80;;;1.35;;
71941;SDS011;59997;53.300;-6.260;2022-07-29T10:55:31;5.95;;;1.50;;
71941;SDS011;59997;53.300;-6.260;2022-07-29T10:58:21;6.03;;;2.40;;
71941;SDS011;59997;53.300;-6.260;2022-07-29T11:00:48;6.00;;;2.10;;
71941;SDS011;59997;53.300;-6.260;2022-07-29T11:06:13;7.38;;;1.65;;
71941;SDS011;59997;53.300;-6.260;2022-07-29T11:08:40;7.05;;;1.63;;
71941;SDS011;59997;53.300;-6.260;2022-07-29T11:13:51;7.38;;;1.55;;
71941;SDS011;59997;53.300;-6.260;2022-07-29T11:16:20;6.05;;;1.77;;
71941;SDS011;59997;53.300;-6.260;2022-07-29T11:21:44;5.15;;;1.60;;
71941;SDS011;59997;53.300;-6.260;2022-07-29T11:24:17;6.13;;;1.33;;
71941;SDS011;59997;53.300;-6.260;2022-07-29T11:29:57;6.35;;;1.52;;
71941;SDS011;59997;53.300;-6.260;2022-07-29T11:32:49;5.95;;;1.40;;
71941;SDS011;59997;53.300;-6.260;2022-07-29T11:35:23;5.40;;;1.60;;
71941;SDS011;59997;53.300;-6.260;2022-07-29T11:43:48;7.63;;;1.90;;
71941;SDS011;59997;53.300;-6.260;2022-07-29T11:47:05;5.43;;;1.50;;
71941;SDS011;59997;53.300;-6.260;2022-07-29T11:49:20;6.05;;;1.55;;
71941;SDS011;59997;53.300;-6.260;2022-07-29T11:51:55;6.50;;;1.50;;
71941;SDS011;59997;53.300;-6.260;2022-07-29T11:54:36;7.10;;;1.52;;
71941;SDS011;59997;53.300;-6.260;2022-07-29T11:57:06;6.57;;;1.50;;
71941;SDS011;59997;53.300;-6.260;2022-07-29T11:59:38;6.78;;;1.27;;
71941;SDS011;59997;53.300;-6.260;2022-07-29T12:02:07;5.55;;;1.45;;
71941;SDS011;59997;53.300;-6.260;2022-07-29T12:04:33;5.23;;;1.40;;
71941;SDS011;59997;53.300;-6.260;2022-07-29T12:06:59;5.93;;;1.20;;
71941;SDS011;59997;53.300;-6.260;2022-07-29T12:09:25;5.75;;;1.15;;
71941;SDS011;59997;53.300;-6.260;2022-07-29T12:11:57;6.70;;;1.30;;
71941;SDS011;59997;53.300;-6.260;2022-07-29T12:14:31;5.78;;;1.52;;
71941;SDS011;59997;53.300;-6.260;2022-07-29T12:16:59;6.70;;;1.25;;
71941;SDS011;59997;53.300;-6.260;2022-07-29T12:19:26;5.38;;;1.33;;
71941;SDS011;59997;53.300;-6.260;2022-07-29T12:21:54;5.05;;;1.27;;
71941;SDS011;59997;53.300;-6.260;2022-07-29T12:24:21;5.73;;;1.23;;
71941;SDS011;59997;53.300;-6.260;2022-07-29T12:26:51;6.15;;;1.40;;
71941;SDS011;59997;53.300;-6.260;2022-07-29T12:29:19;5.50;;;1.50;;
71941;SDS011;59997;53.300;-6.260;2022-07-29T12:31:48;4.80;;;1.20;;
71941;SDS011;59997;53.300;-6.260;2022-07-29T12:34:19;5.93;;;1.50;;
71941;SDS011;59997;53.300;-6.260;2022-07-29T12:36:49;6.53;;;1.60;;
71941;SDS011;59997;53.300;-6.260;2022-07-29T12:39:16;4.55;;;1.05;;
71941;SDS011;59997;53.300;-6.260;2022-07-29T12:41:43;4.03;;;0.85;;
71941;SDS011;59997;53.300;-6.260;2022-07-29T12:44:10;4.32;;;1.00;;
71941;SDS011;59997;53.300;-6.260;2022-07-29T12:46:36;4.82;;;0.88;;
71941;SDS011;59997;53.300;-6.260;2022-07-29T12:49:03;3.77;;;0.90;;
71941;SDS011;59997;53.300;-6.260;2022-07-29T12:51:40;3.97;;;0.70;;
71941;SDS011;59997;53.300;-6.260;2022-07-29T12:56:37;3.95;;;0.80;;
71941;SDS011;59997;53.300;-6.260;2022-07-29T12:59:13;3.58;;;0.57;;
71941;SDS011;59997;53.300;-6.260;2022-07-29T13:01:48;3.87;;;0.90;;
71941;SDS011;59997;53.300;-6.260;2022-07-29T13:04:28;5.05;;;0.90;;
71941;SDS011;59997;53.300;-6.260;2022-07-29T13:07:03;3.90;;;0.60;;
71941;SDS011;59997;53.300;-6.260;2022-07-29T13:09:41;4.22;;;0.93;;
71941;SDS011;59997;53.300;-6.260;2022-07-29T13:12:08;4.00;;;0.80;;
71941;SDS011;59997;53.300;-6.260;2022-07-29T13:14:43;7.17;;;0.90;;
71941;SDS011;59997;53.300;-6.260;2022-07-29T13:17:13;3.95;;;0.80;;
71941;SDS011;59997;53.300;-6.260;2022-07-29T13:19:41;4.78;;;0.70;;
71941;SDS011;59997;53.300;-6.260;2022-07-29T13:22:13;4.35;;;0.70;;
71941;SDS011;59997;53.300;-6.260;2022-07-29T13:27:17;6.70;;;1.07;;
71941;SDS011;59997;53.300;-6.260;2022-07-29T13:29:45;3.67;;;0.60;;
71941;SDS011;59997;53.300;-6.260;2022-07-29T13:32:11;3.40;;;0.65;;
71941;SDS011;59997;53.300;-6.260;2022-07-29T13:34:37;3.70;;;0.70;;
71941;SDS011;59997;53.300;-6.260;2022-07-29T13:37:03;4.30;;;1.00;;
71941;SDS011;59997;53.300;-6.260;2022-07-29T13:39:29;4.32;;;0.70;;
71941;SDS011;59997;53.300;-6.260;2022-07-29T13:41:55;3.70;;;0.80;;
71941;SDS011;59997;53.300;-6.260;2022-07-29T13:44:21;5.67;;;1.00;;
71941;SDS011;59997;53.300;-6.260;2022-07-29T13:46:47;4.57;;;0.90;;
71941;SDS011;59997;53.300;-6.260;2022-07-29T13:49:13;3.17;;;0.80;;
71941;SDS011;59997;53.300;-6.260;2022-07-29T13:51:38;3.93;;;0.80;;
71941;SDS011;59997;53.300;-6.260;2022-07-29T13:54:04;3.95;;;0.90;;
71941;SDS011;59997;53.300;-6.260;2022-07-29T13:56:30;4.10;;;1.07;;
71941;SDS011;59997;53.300;-6.260;2022-07-29T13:58:55;3.83;;;0.82;;
71941;SDS011;59997;53.300;-6.260;2022-07-29T14:01:22;4.40;;;0.90;;
71941;SDS011;59997;53.300;-6.260;2022-07-29T14:03:49;3.95;;;0.80;;
71941;SDS011;59997;53.300;-6.260;2022-07-29T14:06:15;4.00;;;0.90;;
71941;SDS011;59997;53.300;-6.260;2022-07-29T14:08:41;4.03;;;0.80;;
71941;SDS011;59997;53.300;-6.260;2022-07-29T14:11:06;4.00;;;1.00;;
71941;SDS011;59997;53.300;-6.260;2022-07-29T14:13:32;4.68;;;0.93;;
71941;SDS011;59997;53.300;-6.260;2022-07-29T14:15:58;4.30;;;0.70;;
71941;SDS011;59997;53.300;-6.260;2022-07-29T14:18:24;4.15;;;1.00;;
71941;SDS011;59997;53.300;-6.260;2022-07-29T14:20:49;4.10;;;0.90;;
71941;SDS011;59997;53.300;-6.260;2022-07-29T14:23:17;4.57;;;1.10;;
71941;SDS011;59997;53.300;-6.260;2022-07-29T14:25:43;4.00;;;1.00;;
71941;SDS011;59997;53.300;-6.260;2022-07-29T14:28:09;5.95;;;1.05;;
71941;SDS011;59997;53.300;-6.260;2022-07-29T14:30:35;4.38;;;0.80;;
71941;SDS011;59997;53.300;-6.260;2022-07-29T14:33:00;4.33;;;0.90;;
71941;SDS011;59997;53.300;-6.260;2022-07-29T14:35:26;4.40;;;0.80;;
71941;SDS011;59997;53.300;-6.260;2022-07-29T14:37:54;7.27;;;0.90;;
71941;SDS011;59997;53.300;-6.260;2022-07-29T14:40:19;4.95;;;0.80;;
71941;SDS011;59997;53.300;-6.260;2022-07-29T14:42:46;4.32;;;1.10;;
71941;SDS011;59997;53.300;-6.260;2022-07-29T14:45:12;4.40;;;0.90;;
71941;SDS011;59997;53.300;-6.260;2022-07-29T14:47:38;4.22;;;0.88;;
71941;SDS011;59997;53.300;-6.260;2022-07-29T14:50:05;4.25;;;1.08;;
71941;SDS011;59997;53.300;-6.260;2022-07-29T14:52:31;3.93;;;0.87;;
71941;SDS011;59997;53.300;-6.260;2022-07-29T14:54:57;5.88;;;0.80;;
71941;SDS011;59997;53.300;-6.260;2022-07-29T14:57:23;3.90;;;0.90;;
71941;SDS011;59997;53.300;-6.260;2022-07-29T14:59:49;4.60;;;0.95;;
71941;SDS011;59997;53.300;-6.260;2022-07-29T15:02:15;4.10;;;0.90;;
71941;SDS011;59997;53.300;-6.260;2022-07-29T15:04:41;4.83;;;0.70;;
71941;SDS011;59997;53.300;-6.260;2022-07-29T15:07:07;4.80;;;0.70;;
71941;SDS011;59997;53.300;-6.260;2022-07-29T15:09:34;5.32;;;0.90;;
71941;SDS011;59997;53.300;-6.260;2022-07-29T15:12:00;5.40;;;1.10;;
71941;SDS011;59997;53.300;-6.260;2022-07-29T15:14:27;4.75;;;0.90;;
71941;SDS011;59997;53.300;-6.260;2022-07-29T15:16:53;4.93;;;1.23;;
71941;SDS011;59997;53.300;-6.260;2022-07-29T15:19:19;5.28;;;1.17;;
71941;SDS011;59997;53.300;-6.260;2022-07-29T15:21:45;3.65;;;0.85;;
71941;SDS011;59997;53.300;-6.260;2022-07-29T15:24:11;4.20;;;0.70;;
71941;SDS011;59997;53.300;-6.260;2022-07-29T15:26:37;5.00;;;1.13;;